createdAt,value
2019-03-06T00:02:21.270Z,67.07
2019-03-06T00:05:27.611Z,67.00
2019-03-06T00:08:35.288Z,66.72
2019-03-06T00:11:41.538Z,67.35
2019-03-06T00:14:48.060Z,66.27
2019-03-06T00:17:54.404Z,66.50
2019-03-06T00:21:01.123Z,66.92
2019-03-06T00:24:07.737Z,66.92
2019-03-06T00:27:14.352Z,67.47
2019-03-06T00:30:22.191Z,67.26
2019-03-06T00:33:28.853Z,67.79
2019-03-06T00:36:35.921Z,68.06
2019-03-06T00:39:50.165Z,67.85
2019-03-06T00:42:56.676Z,67.23
2019-03-06T00:46:03.085Z,66.73
2019-03-06T00:49:09.628Z,67.59
2019-03-06T00:52:16.170Z,67.18
2019-03-06T00:55:22.560Z,68.23
2019-03-06T00:58:29.044Z,67.95
2019-03-06T01:01:35.608Z,68.16
2019-03-06T01:04:42.226Z,68.43
2019-03-06T01:07:48.612Z,69.09
2019-03-06T01:10:55.036Z,69.36
2019-03-06T01:14:01.507Z,70.45
2019-03-06T01:17:08.084Z,70.69
2019-03-06T01:20:14.599Z,69.87
2019-03-06T01:23:21.003Z,70.18
2019-03-06T01:26:27.475Z,69.60
2019-03-06T01:29:34.042Z,68.83
2019-03-06T01:32:40.492Z,69.17
2019-03-06T01:35:56.120Z,69.85
2019-03-06T01:39:19.910Z,69.46
2019-03-06T01:42:52.087Z,70.67
2019-03-06T01:45:58.690Z,70.93
2019-03-06T01:49:05.112Z,70.44
2019-03-06T01:52:11.472Z,70.46
2019-03-06T01:55:18.404Z,70.06
2019-03-06T01:58:24.891Z,69.64
2019-03-06T02:01:31.434Z,68.98
2019-03-06T02:04:38.007Z,69.68
2019-03-06T02:07:46.022Z,69.72
2019-03-06T02:10:52.454Z,69.80
2019-03-06T02:13:59.272Z,69.48
2019-03-06T02:17:07.058Z,69.48
2019-03-06T02:20:15.592Z,69.73
2019-03-06T02:23:22.012Z,69.95
2019-03-06T02:26:28.608Z,69.52
2019-03-06T02:29:34.968Z,69.64
2019-03-06T02:32:42.284Z,69.70
2019-03-06T02:35:49.050Z,69.66
2019-03-06T02:38:55.442Z,69.50
2019-03-06T02:42:01.699Z,69.20
2019-03-06T02:45:10.152Z,70.00
2019-03-06T02:48:16.804Z,69.84
2019-03-06T02:51:23.280Z,69.49
2019-03-06T02:54:29.806Z,69.17
2019-03-06T02:57:37.454Z,69.40
2019-03-06T03:01:07.785Z,69.60
2019-03-06T03:04:30.957Z,69.56
2019-03-06T03:07:37.645Z,70.63
2019-03-06T03:10:44.100Z,70.93
2019-03-06T03:13:50.829Z,71.31
2019-03-06T03:16:57.125Z,72.62
2019-03-06T03:20:04.166Z,72.16
2019-03-06T03:23:11.173Z,71.29
2019-03-06T03:26:17.577Z,70.69
2019-03-06T03:29:24.092Z,71.07
2019-03-06T03:32:31.746Z,71.65
2019-03-06T03:35:38.393Z,71.32
2019-03-06T03:38:44.778Z,71.18
2019-03-06T03:41:51.209Z,71.41
2019-03-06T03:44:57.673Z,70.71
2019-03-06T03:48:04.413Z,70.29
2019-03-06T03:51:11.068Z,71.56
2019-03-06T03:54:17.856Z,71.14
2019-03-06T03:57:25.560Z,71.51
2019-03-06T04:00:32.354Z,71.48
2019-03-06T04:03:38.619Z,71.48
2019-03-06T04:06:45.727Z,71.32
2019-03-06T04:09:52.993Z,72.19
2019-03-06T04:12:59.696Z,71.83
2019-03-06T04:16:06.890Z,71.39
2019-03-06T04:19:14.762Z,71.39
2019-03-06T04:22:24.013Z,71.96
2019-03-06T04:25:30.632Z,72.13
2019-03-06T04:28:37.442Z,71.93
2019-03-06T04:31:44.334Z,71.91
2019-03-06T04:34:51.232Z,72.98
2019-03-06T04:37:57.654Z,72.70
2019-03-06T04:41:04.002Z,72.06
2019-03-06T04:44:10.994Z,72.36
2019-03-06T04:47:18.969Z,72.44
2019-03-06T04:50:25.933Z,72.93
2019-03-06T04:53:32.611Z,73.38
2019-03-06T04:56:39.000Z,74.87
2019-03-06T04:59:45.525Z,73.85
2019-03-06T05:02:52.361Z,74.04
2019-03-06T05:05:58.684Z,73.34
2019-03-06T05:09:07.142Z,73.54
2019-03-06T05:12:13.997Z,74.10
2019-03-06T05:15:20.522Z,74.68
2019-03-06T05:18:45.821Z,74.60
2019-03-06T05:21:53.470Z,74.73
2019-03-06T05:25:00.412Z,74.57
2019-03-06T05:28:31.773Z,74.67
2019-03-06T05:31:38.640Z,74.37
2019-03-06T05:34:45.144Z,74.72
2019-03-06T05:38:10.560Z,74.80
2019-03-06T05:41:17.104Z,74.37
2019-03-06T05:44:23.466Z,75.48
2019-03-06T05:47:30.262Z,74.82
2019-03-06T05:50:37.173Z,75.27
2019-03-06T05:53:44.022Z,74.58
2019-03-06T05:56:52.741Z,74.41
2019-03-06T05:59:59.350Z,74.16
2019-03-06T06:03:05.815Z,74.07
2019-03-06T06:06:12.333Z,73.74
2019-03-06T06:09:19.183Z,73.82
2019-03-06T06:12:25.636Z,74.32
2019-03-06T06:15:32.782Z,74.17
2019-03-06T06:18:39.257Z,74.48
2019-03-06T06:21:54.640Z,74.21
2019-03-06T06:25:00.970Z,74.40
2019-03-06T06:28:07.783Z,73.63
2019-03-06T06:31:14.095Z,73.67
2019-03-06T06:34:23.195Z,73.42
2019-03-06T06:37:29.699Z,72.97
2019-03-06T06:40:36.129Z,73.04
2019-03-06T06:43:42.826Z,72.89
2019-03-06T06:46:49.167Z,72.82
2019-03-06T06:49:55.720Z,73.12
2019-03-06T06:53:58.542Z,71.67
2019-03-06T06:57:55.169Z,71.99
2019-03-06T07:02:15.470Z,71.17
2019-03-06T07:05:43.731Z,70.33
2019-03-06T07:09:00.193Z,69.52
2019-03-06T07:12:15.160Z,69.57
2019-03-06T07:15:43.534Z,69.73
2019-03-06T07:19:15.310Z,69.68
2019-03-06T07:22:47.520Z,69.89
2019-03-06T07:26:21.070Z,70.17
2019-03-06T07:29:43.059Z,70.09
2019-03-06T07:32:56.600Z,70.21
2019-03-06T07:36:10.841Z,70.49
2019-03-06T07:39:24.353Z,72.56
2019-03-06T07:42:42.937Z,71.23
2019-03-06T07:46:20.408Z,71.50
2019-03-06T07:49:33.440Z,72.01
2019-03-06T07:52:56.709Z,72.37
2019-03-06T07:56:11.700Z,72.52
2019-03-06T07:59:18.254Z,72.44
2019-03-06T08:02:39.845Z,72.78
2019-03-06T08:05:47.526Z,72.50
2019-03-06T08:08:53.773Z,72.77
2019-03-06T08:12:34.546Z,72.77
2019-03-06T08:15:52.014Z,73.25
2019-03-06T08:19:23.289Z,74.23
2019-03-06T08:22:51.685Z,73.79
2019-03-06T08:25:58.098Z,73.43
2019-03-06T08:29:04.570Z,73.86
2019-03-06T08:32:31.155Z,73.51
2019-03-06T08:35:37.525Z,74.46
2019-03-06T08:38:45.213Z,73.89
2019-03-06T08:41:51.623Z,73.86
2019-03-06T08:44:58.014Z,73.34
2019-03-06T08:48:22.811Z,73.74
2019-03-06T08:51:44.847Z,72.92
2019-03-06T08:55:13.320Z,72.92
2019-03-06T08:58:32.059Z,72.88
2019-03-06T09:02:00.187Z,73.89
2019-03-06T09:05:08.465Z,73.65
2019-03-06T09:08:38.583Z,72.55
2019-03-06T09:12:13.546Z,72.63
2019-03-06T09:15:37.742Z,72.97
2019-03-06T09:18:59.465Z,72.55
2019-03-06T09:22:27.910Z,72.80
2019-03-06T09:25:53.328Z,72.92
2019-03-06T09:29:09.645Z,72.22
2019-03-06T09:32:36.462Z,72.52
2019-03-06T09:36:01.769Z,72.70
2019-03-06T09:39:30.486Z,72.51
2019-03-06T09:43:04.955Z,72.34
2019-03-06T09:46:30.360Z,72.63
2019-03-06T09:49:53.910Z,73.04
2019-03-06T09:53:11.057Z,73.42
2019-03-06T09:56:25.574Z,74.05
2019-03-06T09:59:37.217Z,74.02
2019-03-06T10:03:05.745Z,73.96
2019-03-06T10:06:36.438Z,74.59
2019-03-06T10:09:59.138Z,74.51
2019-03-06T10:13:30.286Z,75.29
2019-03-06T10:16:54.536Z,75.45
2019-03-06T10:20:07.291Z,75.94
2019-03-06T10:23:13.612Z,75.56
2019-03-06T10:26:20.019Z,75.69
2019-03-06T10:29:26.447Z,76.37
2019-03-06T10:32:33.194Z,76.47
2019-03-06T10:35:39.557Z,76.73
2019-03-06T10:38:46.397Z,76.58
2019-03-06T10:41:53.333Z,76.83
2019-03-06T10:45:00.407Z,76.73
2019-03-06T10:48:06.932Z,76.77
2019-03-06T10:51:13.384Z,76.77
2019-03-06T10:54:19.719Z,77.46
2019-03-06T10:57:27.014Z,78.04
2019-03-06T11:00:40.381Z,77.67
2019-03-06T11:04:15.233Z,77.57
2019-03-06T11:07:21.818Z,78.31
2019-03-06T11:10:29.612Z,79.29
2019-03-06T11:13:37.112Z,79.90
2019-03-06T11:16:44.710Z,79.99
2019-03-06T11:19:51.439Z,80.95
2019-03-06T11:22:59.069Z,81.22
2019-03-06T11:26:08.772Z,81.18
2019-03-06T11:29:15.259Z,81.30
2019-03-06T11:32:21.728Z,81.52
2019-03-06T11:35:28.498Z,81.67
2019-03-06T11:38:34.905Z,80.91
2019-03-06T11:41:41.368Z,80.67
2019-03-06T11:44:47.789Z,80.37
2019-03-06T11:47:54.281Z,80.67
2019-03-06T11:51:00.653Z,79.87
2019-03-06T11:54:07.053Z,80.03
2019-03-06T11:57:13.661Z,79.64
2019-03-06T12:00:26.750Z,79.28
2019-03-06T12:03:33.799Z,79.14
2019-03-06T12:06:40.761Z,79.45
2019-03-06T12:09:47.194Z,79.62
2019-03-06T12:12:53.683Z,79.23
2019-03-06T12:16:00.040Z,79.30
2019-03-06T12:19:06.466Z,79.54
2019-03-06T12:22:12.945Z,79.65
2019-03-06T12:25:20.695Z,79.36
2019-03-06T12:28:27.194Z,79.48
2019-03-06T12:31:33.679Z,79.88
2019-03-06T12:34:40.359Z,79.79
2019-03-06T12:37:47.349Z,79.75
2019-03-06T12:40:53.745Z,79.97
2019-03-06T12:44:10.199Z,79.57
2019-03-06T12:47:10.941Z,79.62
2019-03-06T12:50:19.974Z,79.80
2019-03-06T12:53:26.436Z,79.11
2019-03-06T12:56:32.882Z,79.24
2019-03-06T12:59:39.436Z,79.10
2019-03-06T13:02:46.116Z,79.50
2019-03-06T13:05:53.216Z,79.70
2019-03-06T13:09:00.101Z,79.37
2019-03-06T13:12:06.740Z,79.28
2019-03-06T13:15:15.622Z,79.46
2019-03-06T13:18:21.998Z,79.67
2019-03-06T13:21:28.660Z,79.63
2019-03-06T13:24:35.122Z,79.87
2019-03-06T13:27:42.934Z,79.88
2019-03-06T13:30:49.407Z,79.44
2019-03-06T13:34:26.886Z,80.03
2019-03-06T13:37:33.385Z,79.79
2019-03-06T13:40:40.101Z,79.61
2019-03-06T13:43:46.569Z,79.76
2019-03-06T13:46:52.972Z,80.33
2019-03-06T13:49:59.409Z,80.82
2019-03-06T13:53:05.949Z,80.94
2019-03-06T13:56:12.317Z,80.92
2019-03-06T13:59:18.680Z,80.80
2019-03-06T14:02:25.025Z,80.33
2019-03-06T14:05:31.683Z,80.61
2019-03-06T14:08:38.555Z,80.90
2019-03-06T14:11:45.630Z,80.73
2019-03-06T14:14:52.022Z,81.23
2019-03-06T14:18:00.738Z,80.95
2019-03-06T14:21:07.221Z,81.22
2019-03-06T14:24:13.578Z,81.44
2019-03-06T14:27:21.211Z,81.78
2019-03-06T14:30:27.687Z,81.93
2019-03-06T14:33:33.971Z,81.36
2019-03-06T14:36:40.516Z,81.21
2019-03-06T14:39:46.946Z,81.17
2019-03-06T14:42:53.965Z,81.16
2019-03-06T14:46:00.383Z,81.74
2019-03-06T14:49:06.766Z,82.02
2019-03-06T14:52:14.053Z,82.58
2019-03-06T14:55:20.837Z,82.94
2019-03-06T14:58:27.310Z,82.97
2019-03-06T15:01:33.747Z,83.04
2019-03-06T15:04:40.555Z,82.77
2019-03-06T15:07:47.015Z,82.93
2019-03-06T15:10:53.662Z,83.96
2019-03-06T15:14:00.315Z,84.67
2019-03-06T15:17:06.714Z,84.69
2019-03-06T15:20:15.955Z,84.69
2019-03-06T15:23:22.620Z,84.72
2019-03-06T15:26:28.993Z,85.06
2019-03-06T15:29:35.417Z,84.84
2019-03-06T15:32:42.234Z,84.84
2019-03-06T15:35:48.575Z,84.87
2019-03-06T15:38:55.175Z,85.01
2019-03-06T15:42:12.576Z,84.96
2019-03-06T15:45:23.509Z,85.79
2019-03-06T15:48:30.007Z,85.58
2019-03-06T15:51:36.754Z,85.38
2019-03-06T15:54:43.212Z,86.05
2019-03-06T15:57:49.663Z,85.86
2019-03-06T16:00:56.069Z,85.82
2019-03-06T16:04:02.435Z,85.57
2019-03-06T16:07:09.469Z,85.89
2019-03-06T16:10:16.808Z,85.38
2019-03-06T16:13:23.994Z,85.73
2019-03-06T16:16:30.620Z,85.83
2019-03-06T16:19:37.020Z,86.06
2019-03-06T16:22:43.527Z,85.01
2019-03-06T16:25:49.871Z,86.83
2019-03-06T16:28:56.549Z,86.85
2019-03-06T16:32:02.962Z,86.11
2019-03-06T16:35:11.965Z,85.73
2019-03-06T16:38:18.413Z,87.07
2019-03-06T16:41:24.804Z,86.95
2019-03-06T16:44:32.910Z,86.72
2019-03-06T16:47:40.489Z,87.28
2019-03-06T16:50:46.853Z,85.79
2019-03-06T16:53:53.417Z,86.29
2019-03-06T16:56:59.757Z,87.85
2019-03-06T17:00:18.379Z,87.79
2019-03-06T17:03:28.533Z,86.37
2019-03-06T17:06:37.414Z,85.78
2019-03-06T17:09:53.771Z,85.78
2019-03-06T17:13:01.980Z,86.49
2019-03-06T17:16:09.901Z,85.63
2019-03-06T17:19:18.181Z,85.61
2019-03-06T17:22:25.059Z,85.31
2019-03-06T17:25:33.067Z,84.88
2019-03-06T17:28:39.353Z,84.09
2019-03-06T17:31:46.017Z,83.24
2019-03-06T17:34:52.754Z,83.58
2019-03-06T17:37:59.863Z,82.48
2019-03-06T17:41:06.962Z,82.78
2019-03-06T17:44:14.720Z,82.88
2019-03-06T17:47:21.151Z,82.27
2019-03-06T17:50:27.675Z,83.80
2019-03-06T17:53:34.363Z,83.78
2019-03-06T17:56:40.971Z,83.37
2019-03-06T17:59:48.049Z,84.23
2019-03-06T18:02:54.612Z,83.73
2019-03-06T18:06:01.696Z,84.07
2019-03-06T18:09:08.343Z,83.57
2019-03-06T18:12:16.798Z,83.44
2019-03-06T18:15:23.189Z,83.55
2019-03-06T18:18:29.778Z,83.44
2019-03-06T18:21:37.354Z,83.27
2019-03-06T18:24:43.778Z,84.10
2019-03-06T18:27:50.656Z,84.08
2019-03-06T18:30:57.085Z,83.80
2019-03-06T18:34:05.045Z,82.86
2019-03-06T18:37:11.891Z,83.59
2019-03-06T18:40:18.839Z,84.17
2019-03-06T18:43:26.812Z,84.52
2019-03-06T18:46:33.276Z,84.61
2019-03-06T18:49:39.784Z,85.09
2019-03-06T18:52:46.513Z,84.98
2019-03-06T18:55:55.696Z,85.12
2019-03-06T18:59:02.311Z,85.09
2019-03-06T19:02:09.351Z,85.13
2019-03-06T19:05:16.218Z,84.71
2019-03-06T19:08:31.120Z,84.11
2019-03-06T19:11:31.818Z,84.56
2019-03-06T19:14:39.243Z,84.70
2019-03-06T19:17:45.782Z,84.49
2019-03-06T19:20:52.339Z,84.30
2019-03-06T19:23:58.893Z,84.67
2019-03-06T19:27:07.095Z,84.58
2019-03-06T19:30:20.804Z,84.50
2019-03-06T19:33:29.047Z,84.17
2019-03-06T19:36:35.344Z,84.12
2019-03-06T19:39:41.732Z,83.96
2019-03-06T19:42:48.518Z,83.87
2019-03-06T19:45:54.981Z,83.90
2019-03-06T19:49:01.344Z,84.17
2019-03-06T19:52:07.653Z,83.88
2019-03-06T19:55:16.843Z,84.00
2019-03-06T19:58:23.267Z,83.74
2019-03-06T20:01:29.841Z,83.82
2019-03-06T20:04:36.370Z,83.45
2019-03-06T20:07:42.810Z,83.42
2019-03-06T20:10:49.506Z,83.28
2019-03-06T20:13:55.860Z,83.36
2019-03-06T20:17:02.258Z,83.03
2019-03-06T20:20:10.348Z,83.38
2019-03-06T20:23:16.939Z,83.88
2019-03-06T20:26:23.642Z,83.57
2019-03-06T20:29:30.018Z,83.14
2019-03-06T20:32:36.440Z,83.13
2019-03-06T20:35:42.779Z,83.65
2019-03-06T20:38:49.225Z,83.01
2019-03-06T20:41:55.513Z,83.12
2019-03-06T20:45:01.877Z,83.41
2019-03-06T20:48:08.327Z,83.42
2019-03-06T20:51:14.968Z,83.55
2019-03-06T20:54:21.432Z,84.27
2019-03-06T20:57:29.075Z,83.82
2019-03-06T21:00:35.435Z,84.25
2019-03-06T21:03:41.994Z,84.63
2019-03-06T21:06:49.844Z,84.28
2019-03-06T21:09:56.621Z,84.84
2019-03-06T21:13:02.918Z,84.84
2019-03-06T21:16:11.720Z,84.80
2019-03-06T21:19:19.010Z,85.20
2019-03-06T21:22:25.624Z,85.34
2019-03-06T21:25:32.694Z,85.51
2019-03-06T21:28:39.429Z,85.72
2019-03-06T21:31:45.695Z,85.47
2019-03-06T21:34:52.363Z,85.66
2019-03-06T21:37:58.747Z,86.35
2019-03-06T21:41:06.915Z,87.01
2019-03-06T21:44:13.526Z,86.60
2019-03-06T21:47:21.407Z,86.47
2019-03-06T21:50:27.927Z,87.47
2019-03-06T21:53:35.205Z,87.58
2019-03-06T21:56:43.737Z,87.74
2019-03-06T21:59:50.839Z,87.92
2019-03-06T22:03:09.445Z,87.89
2019-03-06T22:06:17.729Z,87.79
2019-03-06T22:09:25.555Z,87.40
2019-03-06T22:12:34.808Z,87.68
2019-03-06T22:15:41.627Z,87.68
2019-03-06T22:18:47.934Z,87.57
2019-03-06T22:21:54.877Z,87.18
2019-03-06T22:25:01.315Z,87.18
2019-03-06T22:28:08.646Z,87.17
2019-03-06T22:31:15.292Z,87.13
2019-03-06T22:34:21.615Z,86.89
2019-03-06T22:37:28.255Z,86.85
2019-03-06T22:40:34.597Z,86.63
2019-03-06T22:43:40.906Z,86.88
2019-03-06T22:46:48.224Z,86.47
2019-03-06T22:49:54.804Z,86.92
2019-03-06T22:53:01.120Z,86.68
2019-03-06T22:56:07.589Z,86.50
2019-03-06T22:59:13.994Z,86.69
2019-03-06T23:02:21.861Z,86.58
2019-03-06T23:05:28.342Z,86.87
2019-03-06T23:08:35.279Z,86.74
2019-03-06T23:11:41.773Z,86.45
2019-03-06T23:14:48.201Z,86.03
2019-03-06T23:17:54.519Z,86.09
2019-03-06T23:21:01.735Z,86.40
2019-03-06T23:24:08.070Z,86.43
2019-03-06T23:27:14.575Z,85.66
2019-03-06T23:30:21.536Z,85.66
2019-03-06T23:33:28.359Z,86.75
2019-03-06T23:36:34.688Z,86.55
2019-03-06T23:39:41.577Z,86.17
2019-03-06T23:42:48.270Z,86.27
2019-03-06T23:45:55.756Z,85.85
2019-03-06T23:49:02.086Z,85.32
2019-03-06T23:52:18.947Z,85.88
2019-03-06T23:55:25.957Z,86.21
2019-03-06T23:58:32.523Z,86.44
